createdAt,value
2022-08-18T00:00:38.429Z,96136.34
2022-08-18T00:03:57.461Z,96140.97
2022-08-18T00:06:53.048Z,96135.03
2022-08-18T00:09:50.714Z,96133.25
2022-08-18T00:12:47.613Z,96133.69
2022-08-18T00:15:49.251Z,96130.94
2022-08-18T00:18:46.370Z,96127.97
2022-08-18T00:21:43.220Z,96128.19
2022-08-18T00:24:40.100Z,96121.66
2022-08-18T00:27:45.936Z,96128.69
2022-08-18T00:30:42.836Z,96134.75
2022-08-18T00:33:39.675Z,96129.53
2022-08-18T00:36:36.634Z,96133.28
2022-08-18T00:39:37.176Z,96135.31
2022-08-18T00:42:46.232Z,96129.78
2022-08-18T00:45:43.779Z,96123.94
2022-08-18T00:48:40.877Z,96124.94
2022-08-18T00:51:51.185Z,96124.56
2022-08-18T00:54:49.810Z,96115.22
2022-08-18T00:57:50.809Z,96125.38
2022-08-18T01:00:51.178Z,96126.69
2022-08-18T01:03:53.026Z,96128.47
2022-08-18T01:07:00.668Z,96119.34
2022-08-18T01:10:01.385Z,96120.03
2022-08-18T01:12:58.912Z,96124.25
2022-08-18T01:15:56.294Z,96123.34
2022-08-18T01:19:12.410Z,96125.13
2022-08-18T01:22:43.592Z,96115.56
2022-08-18T01:25:59.606Z,96115.16
2022-08-18T01:29:07.057Z,96104.88
2022-08-18T01:32:04.177Z,96109.38
2022-08-18T01:35:01.071Z,96105.25
2022-08-18T01:37:57.907Z,96107.06
2022-08-18T01:41:22.243Z,96111.94
2022-08-18T01:44:11.792Z,96116.47
2022-08-18T01:47:11.570Z,96125.84
2022-08-18T01:50:11.165Z,96120.84
2022-08-18T01:53:10.654Z,96120.50
2022-08-18T01:56:08.673Z,96118.47
2022-08-18T01:59:07.462Z,96114.78
2022-08-18T02:02:05.072Z,96109.56
2022-08-18T02:05:12.081Z,96107.00
2022-08-18T02:08:10.680Z,96103.84
2022-08-18T02:11:08.309Z,96107.34
2022-08-18T02:14:06.066Z,96108.03
2022-08-18T02:17:05.298Z,96107.22
2022-08-18T02:20:02.182Z,96096.66
2022-08-18T02:23:02.658Z,96098.59
2022-08-18T02:25:59.569Z,96083.78
2022-08-18T02:28:56.829Z,96089.56
2022-08-18T02:31:53.888Z,96090.94
2022-08-18T02:34:50.728Z,96081.25
2022-08-18T02:37:48.149Z,96077.09
2022-08-18T02:40:46.506Z,96074.03
2022-08-18T02:43:43.638Z,96080.19
2022-08-18T02:46:40.521Z,96087.16
2022-08-18T02:49:37.370Z,96079.41
2022-08-18T02:52:35.532Z,96079.16
2022-08-18T02:55:32.454Z,96087.69
2022-08-18T02:58:33.575Z,96073.72
2022-08-18T03:01:38.473Z,96085.00
2022-08-18T03:04:36.337Z,96074.31
2022-08-18T03:07:33.438Z,96080.03
2022-08-18T03:10:32.350Z,96083.03
2022-08-18T03:13:30.803Z,96089.66
2022-08-18T03:16:32.712Z,96090.06
2022-08-18T03:19:30.110Z,96097.59
2022-08-18T03:22:28.083Z,96103.00
2022-08-18T03:25:26.489Z,96113.59
2022-08-18T03:28:23.461Z,96112.31
2022-08-18T03:31:27.950Z,96110.81
2022-08-18T03:34:25.064Z,96111.97
2022-08-18T03:37:21.991Z,96115.56
2022-08-18T03:40:19.086Z,96114.53
2022-08-18T03:43:49.617Z,96117.31
2022-08-18T03:46:33.428Z,96115.94
2022-08-18T03:49:31.279Z,96124.16
2022-08-18T03:52:28.146Z,96123.94
2022-08-18T03:55:29.241Z,96126.91
2022-08-18T03:58:26.412Z,96123.06
2022-08-18T04:01:28.478Z,96126.03
2022-08-18T04:04:28.827Z,96127.25
2022-08-18T04:07:25.684Z,96125.31
2022-08-18T04:10:26.570Z,96131.63
2022-08-18T04:13:24.321Z,96128.78
2022-08-18T04:16:21.368Z,96129.84
2022-08-18T04:19:26.148Z,96123.88
2022-08-18T04:22:25.596Z,96125.94
2022-08-18T04:25:22.440Z,96131.59
2022-08-18T04:28:19.293Z,96128.31
2022-08-18T04:31:16.339Z,96129.66
2022-08-18T04:34:13.835Z,96130.63
2022-08-18T04:37:10.938Z,96133.28
2022-08-18T04:40:08.885Z,96136.81
2022-08-18T04:43:05.791Z,96134.22
2022-08-18T04:46:03.166Z,96125.47
2022-08-18T04:49:00.480Z,96136.06
2022-08-18T04:52:26.899Z,96134.72
2022-08-18T04:55:34.992Z,96140.34
2022-08-18T04:58:31.897Z,96143.63
2022-08-18T05:01:35.356Z,96135.22
2022-08-18T05:04:32.252Z,96134.72
2022-08-18T05:07:29.180Z,96124.97
2022-08-18T05:10:26.033Z,96125.19
2022-08-18T05:13:23.518Z,96116.78
2022-08-18T05:16:27.443Z,96122.19
2022-08-18T05:19:26.825Z,96121.44
2022-08-18T05:22:28.413Z,96119.53
2022-08-18T05:25:28.451Z,96120.44
2022-08-18T05:28:26.189Z,96122.59
2022-08-18T05:31:26.078Z,96131.63
2022-08-18T05:34:23.002Z,96127.91
2022-08-18T05:37:35.972Z,96131.09
2022-08-18T05:40:34.621Z,96132.00
2022-08-18T05:43:32.022Z,96134.72
2022-08-18T05:46:56.009Z,96134.94
2022-08-18T05:49:55.799Z,96126.53
2022-08-18T05:52:58.308Z,96130.50
2022-08-18T05:56:23.750Z,96129.34
2022-08-18T05:59:34.211Z,96137.38
2022-08-18T06:02:51.140Z,96132.38
2022-08-18T06:06:01.351Z,96137.03
2022-08-18T06:09:17.525Z,96135.63
2022-08-18T06:12:46.601Z,96134.03
2022-08-18T06:16:05.347Z,96130.91
2022-08-18T06:19:28.107Z,96137.81
2022-08-18T06:22:52.137Z,96138.00
2022-08-18T06:26:19.791Z,96146.47
2022-08-18T06:30:12.562Z,96144.41
2022-08-18T06:33:29.699Z,96157.19
2022-08-18T06:37:01.376Z,96166.88
2022-08-18T06:39:58.540Z,96184.44
2022-08-18T06:42:55.891Z,96194.41
2022-08-18T06:45:56.767Z,96211.22
2022-08-18T06:49:04.407Z,96220.94
2022-08-18T06:52:34.127Z,96233.84
2022-08-18T06:55:37.791Z,96248.41
2022-08-18T06:58:34.686Z,96259.25
2022-08-18T07:01:33.257Z,96268.66
2022-08-18T07:04:38.065Z,96269.28
2022-08-18T07:07:39.414Z,96270.50
2022-08-18T07:10:52.171Z,96269.03
2022-08-18T07:14:14.809Z,96269.75
2022-08-18T07:17:22.281Z,96271.59
2022-08-18T07:20:49.739Z,96269.31
2022-08-18T07:24:25.286Z,96284.81
2022-08-18T07:27:49.073Z,96264.03
2022-08-18T07:31:06.433Z,96260.84
2022-08-18T07:34:38.886Z,96258.84
2022-08-18T07:37:58.843Z,96263.09
2022-08-18T07:41:26.078Z,96257.06
2022-08-18T07:44:48.790Z,96260.84
2022-08-18T07:48:37.542Z,96264.34
2022-08-18T07:51:43.803Z,96258.28
2022-08-18T07:54:56.134Z,96273.81
2022-08-18T07:58:11.879Z,96273.72
2022-08-18T08:01:41.199Z,96266.19
2022-08-18T08:04:49.413Z,96280.28
2022-08-18T08:08:02.126Z,96269.47
2022-08-18T08:11:20.384Z,96289.00
2022-08-18T08:14:31.739Z,96299.16
2022-08-18T08:17:58.188Z,96286.34
2022-08-18T08:21:14.408Z,96298.44
2022-08-18T08:24:27.129Z,96301.25
2022-08-18T08:27:45.728Z,96307.38
2022-08-18T08:31:33.422Z,96317.38
2022-08-18T08:35:07.132Z,96317.44
2022-08-18T08:38:39.184Z,96310.66
2022-08-18T08:42:28.935Z,96273.09
2022-08-18T08:45:33.871Z,96268.53
2022-08-18T08:48:35.670Z,96265.34
2022-08-18T08:51:44.784Z,96260.78
2022-08-18T08:54:59.250Z,96221.53
2022-08-18T08:58:21.914Z,96229.53
2022-08-18T09:01:37.977Z,96239.66
2022-08-18T09:05:13.737Z,96237.31
2022-08-18T09:08:43.920Z,96230.38
2022-08-18T09:12:02.952Z,96218.19
2022-08-18T09:15:35.484Z,96236.09
2022-08-18T09:19:02.890Z,96217.88
2022-08-18T09:22:52.517Z,96224.47
2022-08-18T09:25:58.526Z,96200.19
2022-08-18T09:29:13.238Z,96187.56
2022-08-18T09:32:18.981Z,96200.78
2022-08-18T09:35:43.559Z,96194.44
2022-08-18T09:39:10.701Z,96172.75
2022-08-18T09:42:29.912Z,96170.38
2022-08-18T09:45:33.379Z,96150.38
2022-08-18T09:48:43.064Z,96145.72
2022-08-18T09:51:41.186Z,96137.47
2022-08-18T09:55:14.635Z,96141.13
2022-08-18T09:58:50.462Z,96131.09
2022-08-18T10:01:52.424Z,96142.59
2022-08-18T10:04:51.365Z,96140.84
2022-08-18T10:08:08.222Z,96137.75
2022-08-18T10:11:58.121Z,96137.50
2022-08-18T10:15:33.453Z,96133.84
2022-08-18T10:18:50.549Z,96134.59
2022-08-18T10:22:06.390Z,96141.75
2022-08-18T10:25:23.014Z,96139.28
2022-08-18T10:28:58.745Z,96140.97
2022-08-18T10:32:05.220Z,96134.25
2022-08-18T10:35:02.291Z,96144.06
2022-08-18T10:38:00.637Z,96137.59
2022-08-18T10:41:22.947Z,96147.31
2022-08-18T10:44:29.146Z,96143.47
2022-08-18T10:51:08.859Z,96167.78
2022-08-18T10:54:29.406Z,96171.88
2022-08-18T10:57:37.209Z,96179.59
2022-08-18T11:00:48.424Z,96176.22
2022-08-18T11:04:34.019Z,96170.81
2022-08-18T11:07:35.617Z,96180.34
2022-08-18T11:11:06.611Z,96193.53
2022-08-18T11:14:31.830Z,96198.63
2022-08-18T11:18:03.579Z,96192.53
2022-08-18T11:24:55.099Z,96170.66
2022-08-18T11:27:52.171Z,96161.69
2022-08-18T11:30:54.915Z,96148.81
2022-08-18T11:33:51.846Z,96146.38
2022-08-18T11:37:04.997Z,96144.53
2022-08-18T11:43:47.367Z,96146.97
2022-08-18T11:46:47.549Z,96139.13
2022-08-18T11:50:13.245Z,96127.91
2022-08-18T11:53:58.043Z,96118.81
2022-08-18T12:04:31.782Z,96106.97
2022-08-18T12:07:35.297Z,96095.38
2022-08-18T12:10:32.442Z,96101.06
2022-08-18T12:13:29.708Z,96099.50
2022-08-18T12:16:40.189Z,96073.09
2022-08-18T12:19:43.642Z,96057.34
2022-08-18T12:22:45.225Z,96049.75
2022-08-18T12:25:43.340Z,96051.53
2022-08-18T12:28:40.347Z,96054.81
2022-08-18T12:31:42.465Z,96058.47
2022-08-18T12:34:45.893Z,96066.91
2022-08-18T12:38:11.148Z,96062.66
2022-08-18T12:41:03.075Z,96068.09
2022-08-18T12:44:00.105Z,96067.53
2022-08-18T12:46:57.470Z,96068.94
2022-08-18T12:49:56.801Z,96070.00
2022-08-18T12:52:53.905Z,96073.34
2022-08-18T12:55:52.859Z,96075.28
2022-08-18T12:58:50.664Z,96069.41
2022-08-18T13:01:47.552Z,96070.19
2022-08-18T13:04:44.898Z,96074.31
2022-08-18T13:07:44.298Z,96070.78
2022-08-18T13:10:45.441Z,96072.03
2022-08-18T13:13:44.382Z,96071.84
2022-08-18T13:16:53.740Z,96060.47
2022-08-18T13:19:51.959Z,96052.31
2022-08-18T13:22:52.533Z,96063.72
2022-08-18T13:25:50.292Z,96050.69
2022-08-18T13:28:50.862Z,96061.50
2022-08-18T13:31:58.172Z,96062.25
2022-08-18T13:34:56.539Z,96057.56
2022-08-18T13:37:55.265Z,96054.25
2022-08-18T13:40:55.717Z,96058.56
2022-08-18T13:43:52.583Z,96043.22
2022-08-18T13:46:52.132Z,96030.72
2022-08-18T13:49:58.206Z,96024.75
2022-08-18T13:52:57.231Z,96025.00
2022-08-18T13:55:57.376Z,96028.59
2022-08-18T13:58:55.438Z,96028.63
2022-08-18T14:01:53.328Z,96037.88
2022-08-18T14:04:51.855Z,96044.91
2022-08-18T14:07:49.174Z,96040.13
2022-08-18T14:10:53.068Z,96036.00
2022-08-18T14:13:49.982Z,96029.41
2022-08-18T14:16:47.765Z,96017.97
2022-08-18T14:20:03.121Z,96019.66
2022-08-18T14:23:22.015Z,96017.72
2022-08-18T14:26:40.392Z,96008.81
2022-08-18T14:29:46.005Z,96010.91
2022-08-18T14:32:51.314Z,96011.09
2022-08-18T14:36:06.335Z,96005.88
2022-08-18T14:39:06.054Z,96003.25
2022-08-18T14:42:05.700Z,96002.31
2022-08-18T14:45:18.032Z,96007.28
2022-08-18T14:48:27.405Z,95992.25
2022-08-18T14:51:27.211Z,96004.38
2022-08-18T14:54:28.272Z,96009.34
2022-08-18T14:57:25.807Z,96009.19
2022-08-18T15:00:22.920Z,96008.44
2022-08-18T15:03:28.228Z,96013.84
2022-08-18T15:06:28.661Z,96005.69
2022-08-18T15:09:27.261Z,96013.94
2022-08-18T15:12:24.934Z,96020.31
2022-08-18T15:15:22.843Z,96028.16
2022-08-18T15:18:22.820Z,96019.78
2022-08-18T15:21:38.987Z,96027.25
2022-08-18T15:24:59.685Z,96019.97
2022-08-18T15:27:58.113Z,96016.38
2022-08-18T15:34:12.713Z,96019.25
2022-08-18T15:37:10.173Z,96017.09
2022-08-18T15:40:30.349Z,96008.25
2022-08-18T15:43:32.704Z,95997.72
2022-08-18T15:46:34.836Z,95994.44
2022-08-18T15:49:33.801Z,95989.84
2022-08-18T15:52:30.732Z,95990.41
2022-08-18T15:55:32.989Z,95986.72
2022-08-18T15:58:32.847Z,95981.81
2022-08-18T16:01:33.015Z,95975.34
2022-08-18T16:04:29.936Z,95962.22
2022-08-18T16:07:40.074Z,95961.53
2022-08-18T16:10:41.891Z,95946.59
2022-08-18T16:13:39.946Z,95949.00
2022-08-18T16:16:37.131Z,95946.97
2022-08-18T16:19:34.025Z,95941.84
2022-08-18T16:22:32.974Z,95951.25
2022-08-18T16:25:29.844Z,95942.53
2022-08-18T16:28:34.559Z,95943.50
2022-08-18T16:31:32.284Z,95946.81
2022-08-18T16:34:30.937Z,95950.28
2022-08-18T16:37:28.097Z,95949.81
2022-08-18T16:40:28.020Z,95954.19
2022-08-18T16:43:27.172Z,95961.66
2022-08-18T16:46:27.175Z,95967.47
2022-08-18T16:49:24.031Z,95963.88
2022-08-18T16:52:21.168Z,95968.47
2022-08-18T16:55:18.140Z,95973.25
2022-08-18T16:58:33.873Z,95966.81
2022-08-18T17:01:49.692Z,95974.56
2022-08-18T17:04:46.582Z,95980.63
2022-08-18T17:07:43.672Z,95971.81
2022-08-18T17:10:41.428Z,95962.44
2022-08-18T17:13:40.127Z,95972.94
2022-08-18T17:16:38.574Z,95976.75
2022-08-18T17:19:35.503Z,95978.34
2022-08-18T17:22:32.340Z,95972.84
2022-08-18T17:25:30.860Z,95975.88
2022-08-18T17:28:45.670Z,95972.28
2022-08-18T17:31:56.630Z,95981.16
2022-08-18T17:35:04.493Z,95986.72
2022-08-18T17:38:29.793Z,95982.75
2022-08-18T17:41:27.918Z,95990.22
2022-08-18T17:44:31.245Z,95988.13
2022-08-18T17:47:54.295Z,95998.22
2022-08-18T17:51:32.507Z,95992.28
2022-08-18T17:54:42.050Z,95994.56
2022-08-18T17:57:58.651Z,95987.91
2022-08-18T18:00:55.827Z,95995.91
2022-08-18T18:03:53.902Z,95998.81
2022-08-18T18:06:52.787Z,96011.19
2022-08-18T18:10:26.318Z,96009.66
2022-08-18T18:13:28.609Z,96018.59
2022-08-18T18:16:29.569Z,96007.72
2022-08-18T18:19:30.631Z,96006.09
2022-08-18T18:22:29.751Z,96014.75
2022-08-18T18:25:34.483Z,96012.25
2022-08-18T18:28:35.953Z,96013.91
2022-08-18T18:31:33.048Z,96010.06
2022-08-18T18:34:39.312Z,96017.44
2022-08-18T18:38:23.099Z,96023.69
2022-08-18T18:41:27.837Z,96033.09
2022-08-18T18:44:30.769Z,96022.53
2022-08-18T18:47:57.676Z,96023.72
2022-08-18T18:51:11.835Z,96015.94
2022-08-18T18:54:49.796Z,96023.38
2022-08-18T18:58:18.438Z,96015.56
2022-08-18T19:01:39.102Z,96020.59
2022-08-18T19:04:56.654Z,96021.00
2022-08-18T19:08:12.806Z,96008.16
2022-08-18T19:11:33.168Z,96006.25
2022-08-18T19:14:39.355Z,96010.53
2022-08-18T19:17:44.730Z,96013.59
2022-08-18T19:22:02.201Z,96005.84
2022-08-18T19:24:21.781Z,96000.38
2022-08-18T19:27:42.827Z,95994.94
2022-08-18T19:30:44.877Z,95994.16
2022-08-18T19:33:50.796Z,95996.84
2022-08-18T19:37:12.387Z,95998.81
2022-08-18T19:40:24.068Z,95984.81
2022-08-18T19:43:51.932Z,95978.94
2022-08-18T19:46:54.389Z,95977.78
2022-08-18T19:50:31.499Z,95973.47
2022-08-18T19:54:13.294Z,95970.00
2022-08-18T19:57:49.812Z,95980.50
2022-08-18T20:00:49.532Z,95979.66
2022-08-18T20:04:11.096Z,95989.78
2022-08-18T20:07:47.185Z,95981.25
2022-08-18T20:11:15.418Z,95990.19
2022-08-18T20:14:16.798Z,95987.69
2022-08-18T20:17:16.894Z,95991.28
2022-08-18T20:20:17.551Z,95995.91
2022-08-18T20:23:37.633Z,95986.94
2022-08-18T20:26:40.037Z,95994.75
2022-08-18T20:29:37.106Z,96006.47
2022-08-18T20:32:35.684Z,96014.13
2022-08-18T20:35:57.111Z,96004.78
2022-08-18T20:38:58.190Z,96013.34
2022-08-18T20:41:55.859Z,96013.75
2022-08-18T20:44:59.414Z,96012.53
2022-08-18T20:48:16.316Z,96018.00
2022-08-18T20:51:19.788Z,96021.06
2022-08-18T20:55:03.045Z,96023.41
2022-08-18T20:58:20.601Z,96023.38
2022-08-18T21:01:18.187Z,96024.91
2022-08-18T21:04:15.067Z,96030.75
2022-08-18T21:07:37.860Z,96024.97
2022-08-18T21:10:34.931Z,96033.81
2022-08-18T21:13:42.429Z,96033.41
2022-08-18T21:16:45.493Z,96036.19
2022-08-18T21:19:43.370Z,96031.78
2022-08-18T21:22:44.916Z,96029.81
2022-08-18T21:25:55.731Z,96040.78
2022-08-18T21:29:14.445Z,96042.25
2022-08-18T21:32:37.009Z,96038.38
2022-08-18T21:35:38.070Z,96036.41
2022-08-18T21:38:36.350Z,96034.47
2022-08-18T21:41:40.102Z,96047.34
2022-08-18T21:44:44.384Z,96049.63
2022-08-18T21:48:10.893Z,96055.06
2022-08-18T21:51:08.311Z,96049.56
2022-08-18T21:54:05.431Z,96051.50
2022-08-18T21:57:26.720Z,96056.94
2022-08-18T22:00:42.886Z,96064.75
2022-08-18T22:04:24.572Z,96057.84
2022-08-18T22:07:34.546Z,96062.84
2022-08-18T22:10:51.282Z,96064.09
2022-08-18T22:14:00.483Z,96053.34
2022-08-18T22:17:43.233Z,96067.09
2022-08-18T22:20:52.592Z,96065.59
2022-08-18T22:24:10.572Z,96066.66
2022-08-18T22:27:19.548Z,96063.56
2022-08-18T22:30:16.484Z,96063.56
2022-08-18T22:33:13.335Z,96065.88
2022-08-18T22:36:15.204Z,96061.72
2022-08-18T22:39:18.151Z,96071.25
2022-08-18T22:42:17.878Z,96065.09
2022-08-18T22:45:14.768Z,96065.50
2022-08-18T22:48:11.632Z,96060.38
2022-08-18T22:51:09.013Z,96059.25
2022-08-18T22:54:09.873Z,96064.19
2022-08-18T22:57:06.729Z,96060.66
2022-08-18T23:00:12.815Z,96058.81
2022-08-18T23:03:09.793Z,96049.47
2022-08-18T23:06:08.917Z,96065.41
2022-08-18T23:09:06.108Z,96059.19
2022-08-18T23:12:13.539Z,96054.53
2022-08-18T23:15:11.550Z,96049.47
2022-08-18T23:18:08.408Z,96054.22
2022-08-18T23:21:05.477Z,96055.31
2022-08-18T23:24:04.840Z,96047.16
2022-08-18T23:27:01.726Z,96059.97
2022-08-18T23:29:59.586Z,96058.66
2022-08-18T23:32:56.406Z,96056.00
2022-08-18T23:35:53.799Z,96048.72
2022-08-18T23:38:50.628Z,96056.28
2022-08-18T23:41:47.878Z,96059.88
2022-08-18T23:44:45.775Z,96060.19
2022-08-18T23:47:43.393Z,96059.06
2022-08-18T23:50:43.351Z,96054.34
2022-08-18T23:53:40.494Z,96057.56
2022-08-18T23:56:38.006Z,96063.72
2022-08-18T23:59:34.881Z,96052.13
